sensor_id;sensor_type;location;lat;lon;timestamp;pressure;altitude;pressure_sealevel;temperature;humidity
51617;BME280;37697;52.588;13.394;2022-09-12T00:03:05;101253.47;;;12.20;78.59
51617;BME280;37697;52.588;13.394;2022-09-12T00:08:06;101251.90;;;12.13;78.75
51617;BME280;37697;52.588;13.394;2022-09-12T00:13:07;101253.41;;;12.06;78.60
51617;BME280;37697;52.588;13.394;2022-09-12T00:18:14;101250.52;;;11.97;78.65
51617;BME280;37697;52.588;13.394;2022-09-12T00:23:17;101252.55;;;11.91;78.72
51617;BME280;37697;52.588;13.394;2022-09-12T00:28:17;101251.75;;;11.86;78.71
51617;BME280;37697;52.588;13.394;2022-09-12T00:33:19;101251.06;;;11.78;78.71
51617;BME280;37697;52.588;13.394;2022-09-12T00:38:20;101254.47;;;11.72;78.68
51617;BME280;37697;52.588;13.394;2022-09-12T00:43:39;101240.22;;;11.65;78.69
51617;BME280;37697;52.588;13.394;2022-09-12T00:48:45;101243.05;;;11.60;78.74
51617;BME280;37697;52.588;13.394;2022-09-12T00:53:49;101242.90;;;11.51;78.74
51617;BME280;37697;52.588;13.394;2022-09-12T00:58:57;101237.98;;;11.45;78.77
51617;BME280;37697;52.588;13.394;2022-09-12T01:04:02;101239.47;;;11.40;78.77
51617;BME280;37697;52.588;13.394;2022-09-12T01:09:04;101239.55;;;11.32;78.78
51617;BME280;37697;52.588;13.394;2022-09-12T01:14:06;101240.75;;;11.26;78.87
51617;BME280;37697;52.588;13.394;2022-09-12T01:30:31;101241.22;;;11.09;78.91
51617;BME280;37697;52.588;13.394;2022-09-12T01:51:40;101231.05;;;10.86;79.04
51617;BME280;37697;52.588;13.394;2022-09-12T01:56:48;101228.59;;;10.81;79.07
51617;BME280;37697;52.588;13.394;2022-09-12T02:07:21;101230.64;;;10.71;79.04
51617;BME280;37697;52.588;13.394;2022-09-12T02:12:28;101233.48;;;10.63;79.07
51617;BME280;37697;52.588;13.394;2022-09-12T02:17:33;101232.44;;;10.59;79.09
51617;BME280;37697;52.588;13.394;2022-09-12T02:22:36;101228.36;;;10.54;79.19
51617;BME280;37697;52.588;13.394;2022-09-12T02:33:06;101234.20;;;10.44;79.21
51617;BME280;37697;52.588;13.394;2022-09-12T02:43:31;101235.70;;;10.34;79.19
51617;BME280;37697;52.588;13.394;2022-09-12T02:48:34;101235.44;;;10.28;79.20
51617;BME280;37697;52.588;13.394;2022-09-12T02:53:37;101230.79;;;10.23;79.29
51617;BME280;37697;52.588;13.394;2022-09-12T02:58:38;101227.80;;;10.20;79.35
51617;BME280;37697;52.588;13.394;2022-09-12T03:09:15;101233.94;;;10.12;79.37
51617;BME280;37697;52.588;13.394;2022-09-12T03:25:05;101229.08;;;9.98;79.58
51617;BME280;37697;52.588;13.394;2022-09-12T03:30:11;101232.44;;;9.93;79.46
51617;BME280;37697;52.588;13.394;2022-09-12T03:35:14;101237.97;;;9.87;79.49
51617;BME280;37697;52.588;13.394;2022-09-12T03:40:16;101229.75;;;9.82;79.57
51617;BME280;37697;52.588;13.394;2022-09-12T03:45:17;101233.91;;;9.80;79.67
51617;BME280;37697;52.588;13.394;2022-09-12T03:50:17;101237.26;;;9.74;79.66
51617;BME280;37697;52.588;13.394;2022-09-12T03:55:18;101237.82;;;9.71;79.77
51617;BME280;37697;52.588;13.394;2022-09-12T04:00:19;101242.23;;;9.70;79.83
51617;BME280;37697;52.588;13.394;2022-09-12T04:05:21;101246.10;;;9.66;79.79
51617;BME280;37697;52.588;13.394;2022-09-12T04:10:23;101249.98;;;9.60;79.69
51617;BME280;37697;52.588;13.394;2022-09-12T04:15:24;101247.81;;;9.57;79.89
51617;BME280;37697;52.588;13.394;2022-09-12T04:20:25;101245.06;;;9.54;79.89
51617;BME280;37697;52.588;13.394;2022-09-12T04:25:25;101239.88;;;9.50;79.84
51617;BME280;37697;52.588;13.394;2022-09-12T04:30:27;101232.75;;;9.46;79.91
51617;BME280;37697;52.588;13.394;2022-09-12T04:35:28;101235.21;;;9.45;80.09
51617;BME280;37697;52.588;13.394;2022-09-12T04:40:29;101235.52;;;9.41;80.03
51617;BME280;37697;52.588;13.394;2022-09-12T04:45:32;101240.20;;;9.38;80.01
51617;BME280;37697;52.588;13.394;2022-09-12T04:50:32;101243.26;;;9.34;80.16
51617;BME280;37697;52.588;13.394;2022-09-12T04:55:33;101238.02;;;9.35;80.36
51617;BME280;37697;52.588;13.394;2022-09-12T05:00:34;101242.98;;;9.36;80.44
51617;BME280;37697;52.588;13.394;2022-09-12T05:05:35;101241.33;;;9.35;80.49
51617;BME280;37697;52.588;13.394;2022-09-12T05:10:36;101238.58;;;9.35;80.45
51617;BME280;37697;52.588;13.394;2022-09-12T05:15:37;101234.73;;;9.36;80.65
51617;BME280;37697;52.588;13.394;2022-09-12T05:20:39;101234.45;;;9.37;80.87
51617;BME280;37697;52.588;13.394;2022-09-12T05:25:48;101241.30;;;9.42;81.08
51617;BME280;37697;52.588;13.394;2022-09-12T05:31:05;101252.81;;;9.49;81.30
51617;BME280;37697;52.588;13.394;2022-09-12T05:36:20;101249.44;;;9.58;81.57
51617;BME280;37697;52.588;13.394;2022-09-12T05:41:25;101252.95;;;9.68;81.89
51617;BME280;37697;52.588;13.394;2022-09-12T05:46:35;101263.89;;;9.79;81.99
51617;BME280;37697;52.588;13.394;2022-09-12T05:51:41;101269.30;;;9.92;82.16
51617;BME280;37697;52.588;13.394;2022-09-12T05:56:44;101268.09;;;10.08;82.97
51617;BME280;37697;52.588;13.394;2022-09-12T06:01:46;101266.25;;;10.30;83.50
51617;BME280;37697;52.588;13.394;2022-09-12T06:06:47;101276.27;;;10.55;83.78
51617;BME280;37697;52.588;13.394;2022-09-12T06:11:48;101279.31;;;10.80;83.98
51617;BME280;37697;52.588;13.394;2022-09-12T06:16:51;101271.82;;;11.10;84.35
51617;BME280;37697;52.588;13.394;2022-09-12T06:21:51;101272.85;;;11.38;84.09
51617;BME280;37697;52.588;13.394;2022-09-12T06:26:53;101277.13;;;11.69;84.03
51617;BME280;37697;52.588;13.394;2022-09-12T06:31:54;101286.62;;;12.01;83.89
51617;BME280;37697;52.588;13.394;2022-09-12T06:36:55;101290.31;;;12.45;83.00
51617;BME280;37697;52.588;13.394;2022-09-12T06:41:56;101294.47;;;12.76;83.02
51617;BME280;37697;52.588;13.394;2022-09-12T06:46:56;101291.93;;;12.93;83.30
51617;BME280;37697;52.588;13.394;2022-09-12T06:51:58;101299.23;;;13.17;83.49
51617;BME280;37697;52.588;13.394;2022-09-12T06:56:58;101300.08;;;13.31;83.26
51617;BME280;37697;52.588;13.394;2022-09-12T07:01:59;101300.95;;;13.43;82.96
51617;BME280;37697;52.588;13.394;2022-09-12T07:07:00;101291.52;;;13.55;83.03
51617;BME280;37697;52.588;13.394;2022-09-12T07:12:01;101284.89;;;13.68;83.13
51617;BME280;37697;52.588;13.394;2022-09-12T07:17:03;101282.40;;;13.80;83.36
51617;BME280;37697;52.588;13.394;2022-09-12T07:22:05;101282.44;;;13.91;83.32
51617;BME280;37697;52.588;13.394;2022-09-12T07:27:05;101280.73;;;14.04;83.43
51617;BME280;37697;52.588;13.394;2022-09-12T07:32:06;101285.55;;;14.35;83.96
51617;BME280;37697;52.588;13.394;2022-09-12T07:37:08;101289.49;;;14.43;83.21
51617;BME280;37697;52.588;13.394;2022-09-12T07:42:08;101286.73;;;14.65;83.81
51617;BME280;37697;52.588;13.394;2022-09-12T07:47:11;101290.90;;;14.85;83.21
51617;BME280;37697;52.588;13.394;2022-09-12T07:52:12;101290.58;;;15.07;83.70
51617;BME280;37697;52.588;13.394;2022-09-12T07:57:12;101286.86;;;15.11;82.38
51617;BME280;37697;52.588;13.394;2022-09-12T08:02:15;101291.77;;;15.14;82.33
51617;BME280;37697;52.588;13.394;2022-09-12T08:07:15;101286.89;;;15.20;82.08
51617;BME280;37697;52.588;13.394;2022-09-12T08:12:18;101289.34;;;15.22;81.68
51617;BME280;37697;52.588;13.394;2022-09-12T08:17:19;101291.57;;;15.31;81.81
51617;BME280;37697;52.588;13.394;2022-09-12T08:22:22;101286.97;;;15.46;81.98
51617;BME280;37697;52.588;13.394;2022-09-12T08:27:23;101289.03;;;15.61;81.77
51617;BME280;37697;52.588;13.394;2022-09-12T08:32:25;101288.67;;;15.82;81.84
51617;BME280;37697;52.588;13.394;2022-09-12T08:37:30;101290.55;;;15.93;81.34
51617;BME280;37697;52.588;13.394;2022-09-12T08:42:46;101294.88;;;16.05;80.68
51617;BME280;37697;52.588;13.394;2022-09-12T08:48:03;101290.45;;;16.30;80.38
51617;BME280;37697;52.588;13.394;2022-09-12T08:53:17;101291.29;;;16.63;80.24
51617;BME280;37697;52.588;13.394;2022-09-12T08:58:22;101285.50;;;16.95;79.26
51617;BME280;37697;52.588;13.394;2022-09-12T09:03:33;101280.34;;;17.14;78.21
51617;BME280;37697;52.588;13.394;2022-09-12T09:08:55;101282.50;;;16.85;76.80
51617;BME280;37697;52.588;13.394;2022-09-12T09:14:08;101280.70;;;16.80;77.10
51617;BME280;37697;52.588;13.394;2022-09-12T09:19:36;101278.51;;;17.18;77.01
51617;BME280;37697;52.588;13.394;2022-09-12T09:24:47;101272.69;;;17.62;75.97
51617;BME280;37697;52.588;13.394;2022-09-12T09:29:51;101273.45;;;17.86;75.13
51617;BME280;37697;52.588;13.394;2022-09-12T09:34:54;101276.69;;;18.09;74.25
51617;BME280;37697;52.588;13.394;2022-09-12T09:45:27;101268.62;;;18.68;72.30
51617;BME280;37697;52.588;13.394;2022-09-12T09:50:29;101269.27;;;18.99;70.92
51617;BME280;37697;52.588;13.394;2022-09-12T09:55:33;101262.42;;;19.21;70.03
51617;BME280;37697;52.588;13.394;2022-09-12T10:00:37;101259.40;;;19.13;68.71
51617;BME280;37697;52.588;13.394;2022-09-12T10:05:47;101265.80;;;18.96;68.82
51617;BME280;37697;52.588;13.394;2022-09-12T10:11:04;101262.30;;;19.05;67.43
51617;BME280;37697;52.588;13.394;2022-09-12T10:16:31;101253.67;;;19.28;66.79
51617;BME280;37697;52.588;13.394;2022-09-12T10:21:53;101256.67;;;19.48;66.22
51617;BME280;37697;52.588;13.394;2022-09-12T10:27:05;101251.07;;;19.66;65.70
51617;BME280;37697;52.588;13.394;2022-09-12T10:32:35;101243.48;;;19.85;64.83
51617;BME280;37697;52.588;13.394;2022-09-12T10:37:39;101247.15;;;19.96;64.47
51617;BME280;37697;52.588;13.394;2022-09-12T10:42:49;101240.80;;;20.17;63.15
51617;BME280;37697;52.588;13.394;2022-09-12T10:47:53;101239.71;;;20.44;63.56
51617;BME280;37697;52.588;13.394;2022-09-12T10:53:12;101229.70;;;20.59;62.90
51617;BME280;37697;52.588;13.394;2022-09-12T10:58:41;101235.30;;;20.81;62.78
51617;BME280;37697;52.588;13.394;2022-09-12T11:09:29;101227.32;;;21.15;60.77
51617;BME280;37697;52.588;13.394;2022-09-12T11:15:01;101229.97;;;21.43;60.11
51617;BME280;37697;52.588;13.394;2022-09-12T11:25:56;101222.52;;;21.76;59.07
51617;BME280;37697;52.588;13.394;2022-09-12T11:36:54;101223.96;;;21.25;57.53
51617;BME280;37697;52.588;13.394;2022-09-12T11:42:02;101227.00;;;21.10;58.28
51617;BME280;37697;52.588;13.394;2022-09-12T11:47:09;101223.63;;;21.11;57.83
51617;BME280;37697;52.588;13.394;2022-09-12T11:52:19;101217.28;;;20.88;57.77
51617;BME280;37697;52.588;13.394;2022-09-12T11:57:43;101208.56;;;20.68;57.57
51617;BME280;37697;52.588;13.394;2022-09-12T12:08:23;101193.53;;;20.82;57.36
51617;BME280;37697;52.588;13.394;2022-09-12T12:13:34;101187.16;;;21.17;57.69
51617;BME280;37697;52.588;13.394;2022-09-12T12:18:39;101182.94;;;21.43;57.61
51617;BME280;37697;52.588;13.394;2022-09-12T12:23:55;101177.73;;;21.61;56.45
51617;BME280;37697;52.588;13.394;2022-09-12T12:28:59;101171.34;;;21.44;56.19
51617;BME280;37697;52.588;13.394;2022-09-12T12:34:02;101166.88;;;21.04;56.16
51617;BME280;37697;52.588;13.394;2022-09-12T12:44:48;101164.00;;;21.46;55.48
51617;BME280;37697;52.588;13.394;2022-09-12T12:49:55;101170.87;;;21.58;55.35
51617;BME280;37697;52.588;13.394;2022-09-12T12:55:00;101164.38;;;21.73;55.06
51617;BME280;37697;52.588;13.394;2022-09-12T13:05:39;101174.28;;;21.67;53.33
51617;BME280;37697;52.588;13.394;2022-09-12T13:16:11;101167.99;;;21.54;53.14
51617;BME280;37697;52.588;13.394;2022-09-12T13:21:17;101161.77;;;21.45;53.30
51617;BME280;37697;52.588;13.394;2022-09-12T13:26:23;101161.77;;;21.35;53.16
51617;BME280;37697;52.588;13.394;2022-09-12T13:31:26;101151.87;;;21.22;53.42
51617;BME280;37697;52.588;13.394;2022-09-12T13:42:21;101137.34;;;21.16;53.22
51617;BME280;37697;52.588;13.394;2022-09-12T13:47:29;101133.15;;;21.16;52.96
51617;BME280;37697;52.588;13.394;2022-09-12T13:52:33;101135.27;;;21.04;52.53
51617;BME280;37697;52.588;13.394;2022-09-12T13:57:37;101127.56;;;20.91;52.77
51617;BME280;37697;52.588;13.394;2022-09-12T14:02:40;101130.95;;;20.90;52.76
51617;BME280;37697;52.588;13.394;2022-09-12T14:07:59;101124.28;;;20.95;53.14
51617;BME280;37697;52.588;13.394;2022-09-12T14:13:09;101126.16;;;20.91;53.28
51617;BME280;37697;52.588;13.394;2022-09-12T14:18:21;101119.88;;;20.88;52.88
51617;BME280;37697;52.588;13.394;2022-09-12T14:23:27;101116.84;;;20.77;52.69
51617;BME280;37697;52.588;13.394;2022-09-12T14:28:29;101115.63;;;20.68;53.12
51617;BME280;37697;52.588;13.394;2022-09-12T14:33:44;101122.67;;;20.78;54.17
51617;BME280;37697;52.588;13.394;2022-09-12T14:38:51;101112.23;;;20.85;53.38
51617;BME280;37697;52.588;13.394;2022-09-12T14:43:57;101114.87;;;20.77;52.70
51617;BME280;37697;52.588;13.394;2022-09-12T14:49:08;101110.59;;;20.74;53.03
51617;BME280;37697;52.588;13.394;2022-09-12T15:04:40;101099.89;;;20.38;52.27
51617;BME280;37697;52.588;13.394;2022-09-12T15:09:46;101098.47;;;20.28;53.42
51617;BME280;37697;52.588;13.394;2022-09-12T15:14:50;101090.44;;;20.26;53.59
51617;BME280;37697;52.588;13.394;2022-09-12T15:19:50;101091.50;;;20.22;53.47
51617;BME280;37697;52.588;13.394;2022-09-12T15:24:51;101087.40;;;20.10;53.93
51617;BME280;37697;52.588;13.394;2022-09-12T15:29:52;101082.58;;;20.00;54.33
51617;BME280;37697;52.588;13.394;2022-09-12T15:34:53;101084.83;;;19.95;55.28
51617;BME280;37697;52.588;13.394;2022-09-12T15:39:54;101089.78;;;19.85;54.32
51617;BME280;37697;52.588;13.394;2022-09-12T15:44:55;101078.17;;;19.77;55.44
51617;BME280;37697;52.588;13.394;2022-09-12T15:49:56;101080.75;;;19.70;55.41
51617;BME280;37697;52.588;13.394;2022-09-12T15:54:57;101075.02;;;19.73;56.14
51617;BME280;37697;52.588;13.394;2022-09-12T15:59:57;101075.61;;;19.72;56.47
51617;BME280;37697;52.588;13.394;2022-09-12T16:04:59;101076.91;;;19.68;56.42
51617;BME280;37697;52.588;13.394;2022-09-12T16:09:59;101072.17;;;19.63;56.87
51617;BME280;37697;52.588;13.394;2022-09-12T16:15:00;101061.16;;;19.54;56.40
51617;BME280;37697;52.588;13.394;2022-09-12T16:20:02;101066.20;;;19.48;56.42
51617;BME280;37697;52.588;13.394;2022-09-12T16:25:04;101062.27;;;19.37;56.70
51617;BME280;37697;52.588;13.394;2022-09-12T16:30:06;101059.28;;;19.30;57.33
51617;BME280;37697;52.588;13.394;2022-09-12T16:35:08;101051.20;;;19.19;57.95
51617;BME280;37697;52.588;13.394;2022-09-12T16:40:09;101047.15;;;19.10;58.32
51617;BME280;37697;52.588;13.394;2022-09-12T16:45:11;101046.70;;;19.08;58.55
51617;BME280;37697;52.588;13.394;2022-09-12T16:50:12;101054.86;;;19.01;58.83
51617;BME280;37697;52.588;13.394;2022-09-12T16:55:14;101047.33;;;18.89;58.96
51617;BME280;37697;52.588;13.394;2022-09-12T17:00:15;101040.59;;;18.71;59.39
51617;BME280;37697;52.588;13.394;2022-09-12T17:05:15;101031.78;;;18.57;59.67
51617;BME280;37697;52.588;13.394;2022-09-12T17:10:16;101022.47;;;18.53;60.00
51617;BME280;37697;52.588;13.394;2022-09-12T17:15:17;101019.59;;;18.43;60.33
51617;BME280;37697;52.588;13.394;2022-09-12T17:20:18;101018.08;;;18.33;60.78
51617;BME280;37697;52.588;13.394;2022-09-12T17:25:19;101015.42;;;18.18;60.96
51617;BME280;37697;52.588;13.394;2022-09-12T17:30:19;101018.67;;;18.08;61.36
51617;BME280;37697;52.588;13.394;2022-09-12T17:35:20;101015.88;;;17.96;61.50
51617;BME280;37697;52.588;13.394;2022-09-12T17:40:21;101016.31;;;17.86;61.67
51617;BME280;37697;52.588;13.394;2022-09-12T17:45:22;101013.48;;;17.67;61.84
51617;BME280;37697;52.588;13.394;2022-09-12T17:50:23;101015.56;;;17.58;62.24
51617;BME280;37697;52.588;13.394;2022-09-12T17:55:24;101015.03;;;17.43;62.37
51617;BME280;37697;52.588;13.394;2022-09-12T18:00:24;101018.48;;;17.34;62.74
51617;BME280;37697;52.588;13.394;2022-09-12T18:05:27;101024.00;;;17.22;63.12
51617;BME280;37697;52.588;13.394;2022-09-12T18:10:28;101029.09;;;17.14;63.33
51617;BME280;37697;52.588;13.394;2022-09-12T18:15:28;101029.38;;;17.06;63.58
51617;BME280;37697;52.588;13.394;2022-09-12T18:20:31;101030.97;;;16.95;63.80
51617;BME280;37697;52.588;13.394;2022-09-12T18:25:32;101037.17;;;16.85;63.93
51617;BME280;37697;52.588;13.394;2022-09-12T18:30:33;101025.25;;;16.76;64.12
51617;BME280;37697;52.588;13.394;2022-09-12T18:35:36;101022.31;;;16.66;64.36
51617;BME280;37697;52.588;13.394;2022-09-12T18:40:37;101020.50;;;16.56;64.73
51617;BME280;37697;52.588;13.394;2022-09-12T18:45:38;101017.86;;;16.44;64.94
51617;BME280;37697;52.588;13.394;2022-09-12T18:50:39;101016.77;;;16.37;65.25
51617;BME280;37697;52.588;13.394;2022-09-12T18:55:40;101010.20;;;16.26;65.47
51617;BME280;37697;52.588;13.394;2022-09-12T19:00:41;101008.97;;;16.15;65.76
51617;BME280;37697;52.588;13.394;2022-09-12T19:05:44;101008.53;;;16.04;65.94
51617;BME280;37697;52.588;13.394;2022-09-12T19:10:53;100995.59;;;15.94;66.16
51617;BME280;37697;52.588;13.394;2022-09-12T19:15:55;100990.41;;;15.83;66.37
51617;BME280;37697;52.588;13.394;2022-09-12T19:20:57;100984.55;;;15.67;66.53
51617;BME280;37697;52.588;13.394;2022-09-12T19:25:59;100985.81;;;15.55;66.80
51617;BME280;37697;52.588;13.394;2022-09-12T19:31:06;100990.07;;;15.44;67.01
51617;BME280;37697;52.588;13.394;2022-09-12T19:36:10;100986.03;;;15.32;67.14
51617;BME280;37697;52.588;13.394;2022-09-12T19:41:12;100979.75;;;15.21;67.37
51617;BME280;37697;52.588;13.394;2022-09-12T19:46:19;100978.88;;;15.05;67.60
51617;BME280;37697;52.588;13.394;2022-09-12T19:51:21;100977.91;;;14.92;67.85
51617;BME280;37697;52.588;13.394;2022-09-12T19:56:23;100975.23;;;14.81;68.03
51617;BME280;37697;52.588;13.394;2022-09-12T20:01:25;100964.47;;;14.71;68.21
51617;BME280;37697;52.588;13.394;2022-09-12T20:06:29;100962.59;;;14.60;68.38
51617;BME280;37697;52.588;13.394;2022-09-12T20:11:29;100961.00;;;14.48;68.61
51617;BME280;37697;52.588;13.394;2022-09-12T20:16:30;100958.86;;;14.36;68.93
51617;BME280;37697;52.588;13.394;2022-09-12T20:21:34;100949.72;;;14.27;69.14
51617;BME280;37697;52.588;13.394;2022-09-12T20:26:36;100952.95;;;14.20;69.32
51617;BME280;37697;52.588;13.394;2022-09-12T20:31:38;100951.01;;;14.12;69.49
51617;BME280;37697;52.588;13.394;2022-09-12T20:36:40;100948.27;;;14.00;69.58
51617;BME280;37697;52.588;13.394;2022-09-12T20:41:41;100939.36;;;13.92;69.76
51617;BME280;37697;52.588;13.394;2022-09-12T20:46:41;100950.09;;;13.85;70.00
51617;BME280;37697;52.588;13.394;2022-09-12T20:51:42;100946.07;;;13.71;70.04
51617;BME280;37697;52.588;13.394;2022-09-12T20:56:43;100939.92;;;13.63;70.35
51617;BME280;37697;52.588;13.394;2022-09-12T21:01:44;100937.92;;;13.55;70.52
51617;BME280;37697;52.588;13.394;2022-09-12T21:06:45;100928.45;;;13.47;70.68
51617;BME280;37697;52.588;13.394;2022-09-12T21:11:45;100927.78;;;13.41;70.80
51617;BME280;37697;52.588;13.394;2022-09-12T21:16:46;100932.95;;;13.34;70.93
51617;BME280;37697;52.588;13.394;2022-09-12T21:21:47;100922.86;;;13.27;71.10
51617;BME280;37697;52.588;13.394;2022-09-12T21:26:48;100930.24;;;13.20;71.19
51617;BME280;37697;52.588;13.394;2022-09-12T21:31:48;100926.53;;;13.14;71.31
51617;BME280;37697;52.588;13.394;2022-09-12T21:36:49;100917.61;;;13.05;71.48
51617;BME280;37697;52.588;13.394;2022-09-12T21:41:50;100915.86;;;12.98;71.60
51617;BME280;37697;52.588;13.394;2022-09-12T21:53:22;100912.28;;;12.86;71.96
51617;BME280;37697;52.588;13.394;2022-09-12T21:58:23;100916.39;;;12.78;72.04
51617;BME280;37697;52.588;13.394;2022-09-12T22:03:24;100914.94;;;12.69;72.15
51617;BME280;37697;52.588;13.394;2022-09-12T22:08:26;100900.75;;;12.62;72.29
51617;BME280;37697;52.588;13.394;2022-09-12T22:13:28;100897.58;;;12.55;72.46
51617;BME280;37697;52.588;13.394;2022-09-12T22:18:34;100888.59;;;12.49;72.68
51617;BME280;37697;52.588;13.394;2022-09-12T22:23:36;100878.50;;;12.44;72.81
51617;BME280;37697;52.588;13.394;2022-09-12T22:28:55;100869.15;;;12.43;73.08
51617;BME280;37697;52.588;13.394;2022-09-12T22:33:56;100870.64;;;12.38;73.01
51617;BME280;37697;52.588;13.394;2022-09-12T22:38:58;100861.67;;;12.32;73.17
51617;BME280;37697;52.588;13.394;2022-09-12T22:43:59;100850.78;;;12.24;73.25
51617;BME280;37697;52.588;13.394;2022-09-12T22:48:59;100841.19;;;12.22;73.73
51617;BME280;37697;52.588;13.394;2022-09-12T22:54:01;100841.23;;;12.19;73.78
51617;BME280;37697;52.588;13.394;2022-09-12T22:59:02;100824.98;;;12.18;73.93
51617;BME280;37697;52.588;13.394;2022-09-12T23:04:03;100815.12;;;12.14;74.01
51617;BME280;37697;52.588;13.394;2022-09-12T23:09:04;100806.34;;;12.12;74.15
51617;BME280;37697;52.588;13.394;2022-09-12T23:14:05;100796.45;;;12.11;74.45
51617;BME280;37697;52.588;13.394;2022-09-12T23:19:06;100803.09;;;12.10;74.49
51617;BME280;37697;52.588;13.394;2022-09-12T23:24:07;100797.33;;;12.09;74.60
51617;BME280;37697;52.588;13.394;2022-09-12T23:29:08;100788.16;;;12.11;74.86
51617;BME280;37697;52.588;13.394;2022-09-12T23:34:09;100802.32;;;12.07;74.99
51617;BME280;37697;52.588;13.394;2022-09-12T23:39:10;100795.53;;;12.02;75.03
51617;BME280;37697;52.588;13.394;2022-09-12T23:44:11;100793.04;;;12.03;75.27
51617;BME280;37697;52.588;13.394;2022-09-12T23:49:11;100781.38;;;12.06;75.56
51617;BME280;37697;52.588;13.394;2022-09-12T23:54:12;100783.53;;;12.09;75.63
51617;BME280;37697;52.588;13.394;2022-09-12T23:59:13;100781.31;;;12.08;75.57
